Time;durP1;ratioP1;P1;durP2;ratioP2;P2;SDS_P1;SDS_P2;PMS_P1;PMS_P2;Temp;Humidity;BMP_temperature;BMP_pressure;BME280_temperature;BME280_humidity;BME280_pressure;Samples;Min_cycle;Max_cycle;Signal;HPM_P1;HPM_P2
2021/01/26 00:01:30;;;;;;;9.23;1.37;;;3.30;98.20;;;;;;5068111;28;20036;-82
2021/01/26 00:03:57;;;;;;;9.93;1.33;;;3.20;98.20;;;;;;5087516;28;20375;-82
2021/01/26 00:06:23;;;;;;;8.87;1.57;;;3.20;98.20;;;;;;5036209;28;20482;-82
2021/01/26 00:08:50;;;;;;;6.90;1.10;;;3.10;98.20;;;;;;5087349;28;20043;-82
2021/01/26 00:11:16;;;;;;;9.30;1.43;;;3.10;98.40;;;;;;5063806;28;20048;-83
2021/01/26 00:13:43;;;;;;;12.07;1.30;;;3.20;98.50;;;;;;5056796;28;20040;-81
2021/01/26 00:16:09;;;;;;;9.43;1.60;;;3.20;98.50;;;;;;5086913;28;20047;-80
2021/01/26 00:18:36;;;;;;;8.17;1.13;;;3.30;98.50;;;;;;5069774;28;20485;-81
2021/01/26 00:21:03;;;;;;;10.37;1.40;;;3.40;98.50;;;;;;5069462;28;20032;-81
2021/01/26 00:23:29;;;;;;;15.37;1.63;;;3.40;98.50;;;;;;5085885;28;20482;-82
2021/01/26 00:25:56;;;;;;;10.63;1.37;;;3.40;98.50;;;;;;5069917;28;20039;-82
2021/01/26 00:28:22;;;;;;;16.03;1.60;;;3.50;98.50;;;;;;5054530;28;20574;-82
2021/01/26 00:30:49;;;;;;;11.80;1.73;;;3.50;98.50;;;;;;5069698;28;20047;-82
2021/01/26 00:33:21;;;;;;;13.00;1.87;;;3.50;98.40;;;;;;5096105;28;20032;-82
2021/01/26 00:35:48;;;;;;;9.50;1.60;;;3.60;98.40;;;;;;5053637;28;20039;-82
2021/01/26 00:38:15;;;;;;;8.30;1.00;;;3.60;98.40;;;;;;5086394;28;20509;-81
2021/01/26 00:40:42;;;;;;;7.20;1.13;;;3.50;98.40;;;;;;5086435;28;20470;-82
2021/01/26 00:43:12;;;;;;;12.13;1.73;;;3.50;98.40;;;;;;5070280;28;20035;-82
2021/01/26 00:45:39;;;;;;;5.47;1.17;;;3.40;98.40;;;;;;5067385;28;20043;-82
2021/01/26 00:48:06;;;;;;;12.40;1.67;;;3.40;98.40;;;;;;5069464;28;20360;-82
2021/01/26 00:50:33;;;;;;;7.60;1.20;;;3.30;98.40;;;;;;5086591;28;20054;-82
2021/01/26 00:53:00;;;;;;;9.73;1.60;;;3.30;98.50;;;;;;5086009;28;20048;-82
2021/01/26 00:55:39;;;;;;;9.93;1.90;;;3.20;98.50;;;;;;5085888;28;20043;-82
2021/01/26 00:58:09;;;;;;;11.47;1.77;;;3.10;98.60;;;;;;5051969;28;20066;-82
2021/01/26 01:00:38;;;;;;;15.20;1.47;;;3.10;98.70;;;;;;5084644;28;20040;-82
2021/01/26 01:03:09;;;;;;;11.10;1.30;;;3.10;98.80;;;;;;5069034;28;20032;-82
2021/01/26 01:05:36;;;;;;;13.63;1.53;;;3.10;98.70;;;;;;5067319;28;20395;-82
2021/01/26 01:08:04;;;;;;;6.67;1.13;;;3.10;98.70;;;;;;5075407;28;20526;-82
2021/01/26 01:10:35;;;;;;;12.17;1.20;;;3.10;98.70;;;;;;5068096;28;20038;-83
2021/01/26 01:13:02;;;;;;;15.00;1.57;;;3.00;98.80;;;;;;5069396;28;20039;-83
2021/01/26 01:15:29;;;;;;;10.90;1.07;;;3.00;98.80;;;;;;5067860;28;20055;-83
2021/01/26 01:17:56;;;;;;;10.40;1.20;;;3.00;98.80;;;;;;5052473;28;20032;-83
2021/01/26 01:20:25;;;;;;;16.17;1.27;;;3.00;98.70;;;;;;5066354;28;20044;-83
2021/01/26 01:22:52;;;;;;;9.67;0.90;;;3.00;98.80;;;;;;5069832;28;20039;-83
2021/01/26 01:25:20;;;;;;;11.57;1.23;;;2.90;98.80;;;;;;5068449;28;20041;-83
2021/01/26 01:27:47;;;;;;;9.27;0.77;;;2.90;98.80;;;;;;5085614;28;20040;-83
2021/01/26 01:30:20;;;;;;;16.67;1.43;;;2.90;98.80;;;;;;5068586;28;20044;-83
2021/01/26 01:32:47;;;;;;;9.53;1.43;;;2.90;98.90;;;;;;5069149;28;20529;-83
2021/01/26 01:35:14;;;;;;;15.37;1.33;;;2.80;98.90;;;;;;5055840;28;20083;-83
2021/01/26 01:37:41;;;;;;;12.90;1.70;;;2.90;99.00;;;;;;5089435;28;20505;-83
2021/01/26 01:40:11;;;;;;;9.30;1.57;;;2.90;99.10;;;;;;5070580;28;20040;-83
2021/01/26 01:42:38;;;;;;;16.53;1.40;;;3.00;99.20;;;;;;5078773;28;20048;-83
2021/01/26 01:45:06;;;;;;;11.43;1.50;;;3.00;99.20;;;;;;5068069;28;20036;-83
2021/01/26 01:47:45;;;;;;;13.53;1.30;;;3.10;99.10;;;;;;5071108;28;20037;-83
2021/01/26 01:50:38;;;;;;;9.77;1.00;;;3.00;99.00;;;;;;5088845;28;20055;-82
2021/01/26 01:53:16;;;;;;;17.67;1.70;;;3.00;99.00;;;;;;5067891;28;20051;-82
2021/01/26 01:55:51;;;;;;;8.33;0.80;;;3.00;99.00;;;;;;5104363;28;20063;-82
2021/01/26 01:58:27;;;;;;;11.40;1.00;;;3.00;99.10;;;;;;5074866;28;20043;-81
2021/01/26 02:01:01;;;;;;;10.53;1.27;;;3.00;99.10;;;;;;5058317;28;20556;-82
2021/01/26 02:03:31;;;;;;;16.03;0.90;;;3.00;99.10;;;;;;5101901;28;20031;-82
2021/01/26 02:05:59;;;;;;;10.70;1.00;;;3.00;99.30;;;;;;5067987;28;20032;-82
2021/01/26 02:09:04;;;;;;;12.23;1.23;;;3.10;99.30;;;;;;5049174;28;20040;-82
2021/01/26 02:11:31;;;;;;;14.13;1.00;;;3.20;99.30;;;;;;5084063;28;20040;-82
2021/01/26 02:13:59;;;;;;;8.03;1.17;;;3.30;99.20;;;;;;5050299;28;20401;-82
2021/01/26 02:16:29;;;;;;;4.87;0.50;;;3.30;99.10;;;;;;5065532;28;20047;-82
2021/01/26 02:19:17;;;;;;;10.40;0.60;;;3.40;99.10;;;;;;5069468;28;20526;-81
2021/01/26 02:22:21;;;;;;;9.17;0.90;;;3.40;99.00;;;;;;5062936;28;20047;-82
2021/01/26 02:25:06;;;;;;;9.50;0.77;;;3.40;98.80;;;;;;5064638;28;20410;-82
2021/01/26 02:28:10;;;;;;;8.43;0.53;;;3.30;98.70;;;;;;5080121;28;20035;-82
2021/01/26 02:31:10;;;;;;;7.47;0.70;;;3.20;98.80;;;;;;5067242;28;20043;-82
2021/01/26 02:34:05;;;;;;;12.57;0.50;;;3.20;98.80;;;;;;5079481;28;20036;-82
2021/01/26 02:36:57;;;;;;;10.57;0.50;;;3.20;98.90;;;;;;5056249;28;20028;-82
2021/01/26 02:39:47;;;;;;;9.43;0.57;;;3.10;98.80;;;;;;5071860;28;20059;-82
2021/01/26 02:42:44;;;;;;;11.57;0.60;;;3.10;98.80;;;;;;5080713;28;20045;-82
2021/01/26 02:45:33;;;;;;;8.33;1.03;;;3.00;98.70;;;;;;5080390;28;20584;-82
2021/01/26 02:48:14;;;;;;;7.47;0.80;;;3.00;98.80;;;;;;5067293;28;20047;-82
2021/01/26 02:51:04;;;;;;;8.23;0.70;;;3.00;98.80;;;;;;5067153;28;20047;-81
2021/01/26 02:54:15;;;;;;;7.70;0.60;;;2.90;98.90;;;;;;5074659;28;20039;-81
2021/01/26 02:57:09;;;;;;;8.53;0.67;;;3.00;99.10;;;;;;5052104;28;20043;-81
2021/01/26 03:00:08;;;;;;;19.40;1.20;;;3.10;99.10;;;;;;5081998;28;20055;-80
2021/01/26 03:02:49;;;;;;;12.60;1.47;;;3.20;99.00;;;;;;5055914;28;20095;-80
2021/01/26 03:05:21;;;;;;;17.20;1.27;;;3.20;98.90;;;;;;5067250;28;20064;-80
2021/01/26 03:07:54;;;;;;;16.08;0.85;;;3.30;98.80;;;;;;5076893;28;20127;-80
2021/01/26 03:10:24;;;;;;;10.80;0.67;;;3.30;99.00;;;;;;5073002;28;20063;-79
2021/01/26 03:13:02;;;;;;;13.90;0.70;;;3.30;98.70;;;;;;5084316;28;20386;-79
2021/01/26 03:16:02;;;;;;;10.40;0.53;;;3.40;98.70;;;;;;5085533;28;20451;-80
2021/01/26 03:18:46;;;;;;;16.57;0.83;;;3.40;98.60;;;;;;5084414;28;20055;-79
2021/01/26 03:21:14;;;;;;;7.10;0.40;;;3.40;98.50;;;;;;5082484;28;20051;-79
2021/01/26 03:23:46;;;;;;;6.97;0.40;;;3.30;98.50;;;;;;5085361;28;20051;-80
2021/01/26 03:26:20;;;;;;;11.45;0.55;;;3.30;98.50;;;;;;5082785;28;20411;-80
2021/01/26 03:28:52;;;;;;;12.87;0.73;;;3.20;98.50;;;;;;5087342;28;20028;-80
2021/01/26 03:31:26;;;;;;;7.93;0.50;;;3.10;98.50;;;;;;5069090;28;20399;-81
2021/01/26 03:33:53;;;;;;;;;;;3.00;98.60;;;;;;5086416;28;20040;-81
2021/01/26 03:36:19;;;;;;;8.80;0.40;;;2.90;98.60;;;;;;5046224;28;19915;-81
2021/01/26 03:38:48;;;;;;;9.20;0.50;;;2.90;98.70;;;;;;5070209;28;20047;-81
2021/01/26 03:41:16;;;;;;;7.23;0.60;;;2.80;98.80;;;;;;5086533;28;20063;-80
2021/01/26 03:43:43;;;;;;;7.60;0.70;;;2.70;98.80;;;;;;5071033;28;20474;-81
2021/01/26 03:46:19;;;;;;;12.57;0.73;;;2.70;98.90;;;;;;5071013;28;20039;-81
2021/01/26 03:49:02;;;;;;;6.70;0.80;;;2.70;99.10;;;;;;5077204;28;20039;-81
2021/01/26 03:51:43;;;;;;;16.70;1.13;;;2.70;99.10;;;;;;5086726;28;20055;-81
2021/01/26 03:54:28;;;;;;;8.43;0.90;;;2.70;99.20;;;;;;5084959;28;20044;-81
2021/01/26 03:57:04;;;;;;;6.37;0.50;;;2.70;99.20;;;;;;5086332;28;20054;-81
2021/01/26 03:59:37;;;;;;;8.43;0.40;;;2.80;99.30;;;;;;5083389;28;20055;-81
2021/01/26 04:02:33;;;;;;;14.27;1.30;;;2.90;99.30;;;;;;5069277;28;20040;-81
2021/01/26 04:05:07;;;;;;;7.67;0.43;;;2.90;99.20;;;;;;5071222;28;20036;-81
2021/01/26 04:07:43;;;;;;;5.47;0.80;;;2.90;99.20;;;;;;5101224;28;20281;-81
2021/01/26 04:10:23;;;;;;;12.57;0.87;;;2.90;99.20;;;;;;5085006;28;20039;-81
2021/01/26 04:12:55;;;;;;;15.03;0.77;;;2.90;99.20;;;;;;5070084;28;20041;-81
2021/01/26 04:15:41;;;;;;;13.43;0.70;;;2.90;99.20;;;;;;5070054;28;20036;-81
2021/01/26 04:18:11;;;;;;;16.10;0.63;;;3.00;99.20;;;;;;5070104;28;20039;-81
2021/01/26 04:20:39;;;;;;;9.13;0.50;;;3.00;99.30;;;;;;5086692;28;20035;-81
2021/01/26 04:23:06;;;;;;;8.07;0.50;;;3.00;99.30;;;;;;5053422;28;21282;-81
2021/01/26 04:25:36;;;;;;;8.43;0.70;;;3.10;99.30;;;;;;5103932;28;20565;-80
2021/01/26 04:28:07;;;;;;;13.07;0.60;;;3.20;99.30;;;;;;5069858;28;20036;-80
2021/01/26 04:30:34;;;;;;;10.77;0.50;;;3.30;99.30;;;;;;5068443;28;20037;-81
2021/01/26 04:33:05;;;;;;;12.83;0.70;;;3.30;99.20;;;;;;5053778;28;20042;-81
2021/01/26 04:35:31;;;;;;;11.20;0.70;;;3.30;99.20;;;;;;5070330;28;20364;-81
2021/01/26 04:37:58;;;;;;;11.03;0.77;;;3.30;99.20;;;;;;5069640;28;20514;-81
2021/01/26 04:40:26;;;;;;;10.70;0.90;;;3.30;99.10;;;;;;5073060;28;20044;-81
2021/01/26 04:43:02;;;;;;;11.00;0.90;;;3.30;99.10;;;;;;5085114;28;20509;-80
2021/01/26 04:45:41;;;;;;;8.17;0.50;;;3.30;99.20;;;;;;5051786;28;20035;-81
2021/01/26 04:48:18;;;;;;;14.50;1.00;;;3.30;99.30;;;;;;5089611;28;20047;-82
2021/01/26 04:51:06;;;;;;;18.40;1.57;;;3.30;99.30;;;;;;5063411;28;20036;-81
2021/01/26 04:53:54;;;;;;;15.10;0.90;;;3.30;99.30;;;;;;5068754;28;20036;-82
2021/01/26 04:56:30;;;;;;;9.80;0.80;;;3.20;99.20;;;;;;5068943;28;20036;-81
2021/01/26 04:59:09;;;;;;;12.47;0.60;;;3.20;99.20;;;;;;5052546;28;20051;-81
2021/01/26 05:02:05;;;;;;;12.83;1.20;;;3.20;99.30;;;;;;5052826;28;20406;-81
2021/01/26 05:04:39;;;;;;;15.50;0.97;;;3.20;99.30;;;;;;5053843;28;20515;-81
2021/01/26 05:07:16;;;;;;;20.27;1.60;;;3.20;99.40;;;;;;5081915;28;20068;-81
2021/01/26 05:10:42;;;;;;;20.87;0.80;;;3.20;99.50;;;;;;5072283;28;20028;-81
2021/01/26 05:13:18;;;;;;;12.35;0.60;;;3.30;99.50;;;;;;5037424;28;20064;-80
2021/01/26 05:15:49;;;;;;;15.03;1.07;;;3.40;99.50;;;;;;5039586;28;20055;-80
2021/01/26 05:18:24;;;;;;;12.57;1.17;;;3.40;99.50;;;;;;5062607;28;20043;-80
2021/01/26 05:20:59;;;;;;;17.63;1.13;;;3.50;99.50;;;;;;5084212;28;20044;-80
2021/01/26 05:23:33;;;;;;;12.97;0.70;;;3.60;99.50;;;;;;5070473;28;20398;-80
2021/01/26 05:26:00;;;;;;;10.63;0.57;;;3.70;99.50;;;;;;5071280;28;20051;-81
2021/01/26 05:28:26;;;;;;;20.97;0.97;;;3.70;99.50;;;;;;5082989;28;20036;-80
2021/01/26 05:30:56;;;;;;;17.00;1.00;;;3.70;99.40;;;;;;5058832;28;20044;-80
2021/01/26 05:33:24;;;;;;;17.37;1.20;;;3.80;99.40;;;;;;5076764;28;20918;-82
2021/01/26 05:35:56;;;;;;;11.03;0.90;;;3.80;99.30;;;;;;5085352;28;20410;-81
2021/01/26 05:38:23;;;;;;;15.55;1.60;;;3.80;99.40;;;;;;5068067;28;20044;-81
2021/01/26 05:40:57;;;;;;;15.60;1.00;;;3.80;99.30;;;;;;5067675;28;20044;-80
2021/01/26 05:43:30;;;;;;;12.93;1.43;;;3.80;99.30;;;;;;5067500;28;20039;-81
2021/01/26 05:46:00;;;;;;;;;;;3.80;99.40;;;;;;5049460;28;20486;-82
2021/01/26 05:48:28;;;;;;;20.30;1.60;;;3.80;99.40;;;;;;5049801;28;20282;-82
2021/01/26 05:51:40;;;;;;;12.77;1.37;;;3.90;99.40;;;;;;5086046;28;20474;-87
2021/01/26 05:54:28;;;;;;;16.87;1.70;;;3.90;99.40;;;;;;5059960;28;20039;-83
2021/01/26 05:56:56;;;;;;;13.90;1.07;;;3.90;99.40;;;;;;5084563;28;20043;-83
2021/01/26 05:59:33;;;;;;;8.93;1.00;;;3.80;99.30;;;;;;5067920;28;20067;-83
2021/01/26 06:02:22;;;;;;;17.47;1.53;;;3.80;99.30;;;;;;5052276;28;20059;-87
2021/01/26 06:04:49;;;;;;;12.63;1.03;;;3.80;99.40;;;;;;5052324;28;20036;-83
2021/01/26 06:07:24;;;;;;;12.33;0.90;;;3.80;99.40;;;;;;5075466;28;20045;-83
2021/01/26 06:09:51;;;;;;;12.67;0.80;;;3.80;99.40;;;;;;5075012;28;20035;-83
2021/01/26 06:12:21;;;;;;;12.77;0.80;;;3.90;99.50;;;;;;5073515;28;20127;-83
2021/01/26 06:14:57;;;;;;;10.67;0.53;;;3.90;99.50;;;;;;5066973;28;20049;-86
2021/01/26 06:17:27;;;;;;;12.43;0.87;;;3.90;99.50;;;;;;5084552;28;20047;-82
2021/01/26 06:20:20;;;;;;;8.10;0.80;;;3.80;99.40;;;;;;5067305;28;20036;-86
2021/01/26 06:22:49;;;;;;;18.07;1.23;;;3.80;99.40;;;;;;5065888;28;20794;-84
2021/01/26 06:25:33;;;;;;;10.87;1.00;;;3.80;99.40;;;;;;5065240;28;20044;-86
2021/01/26 06:28:28;;;;;;;13.90;1.13;;;3.80;99.40;;;;;;5070820;28;20036;-84
2021/01/26 06:31:42;;;;;;;13.97;1.20;;;3.80;99.40;;;;;;5072512;28;20390;-83
2021/01/26 06:34:15;;;;;;;12.87;0.80;;;3.80;99.50;;;;;;5060223;28;20487;-84
2021/01/26 06:36:58;;;;;;;12.23;0.80;;;3.70;99.50;;;;;;5084122;28;20055;-83
2021/01/26 06:39:58;;;;;;;9.48;1.05;;;3.70;99.50;;;;;;5082806;28;20155;-84
2021/01/26 06:42:43;;;;;;;9.20;1.17;;;3.80;99.60;;;;;;5066897;28;20032;-84
2021/01/26 06:45:35;;;;;;;11.57;1.40;;;3.80;99.50;;;;;;5051599;28;20036;-83
2021/01/26 06:48:01;;;;;;;10.93;1.20;;;3.80;99.50;;;;;;5064950;28;20035;-83
2021/01/26 06:50:48;;;;;;;17.10;2.00;;;3.80;99.50;;;;;;5067057;28;20475;-83
2021/01/26 06:53:43;;;;;;;14.37;1.03;;;3.80;99.50;;;;;;5084304;28;20032;-83
2021/01/26 06:56:51;;;;;;;8.83;0.63;;;3.90;99.50;;;;;;5066978;28;20047;-90
2021/01/26 06:59:53;;;;;;;14.87;1.07;;;3.80;99.50;;;;;;5058751;28;20056;-83
2021/01/26 07:02:53;;;;;;;9.77;0.90;;;3.90;99.60;;;;;;5084206;28;20048;-83
2021/01/26 07:05:43;;;;;;;14.07;1.13;;;3.90;99.60;;;;;;5066777;28;20044;-83
2021/01/26 07:08:31;;;;;;;9.40;0.70;;;3.90;99.60;;;;;;5065957;28;20051;-83
2021/01/26 07:11:18;;;;;;;11.03;0.97;;;3.90;99.60;;;;;;5089908;28;20044;-83
2021/01/26 07:13:55;;;;;;;12.70;1.00;;;3.90;99.60;;;;;;5056241;28;20032;-83
2021/01/26 07:16:40;;;;;;;6.07;0.60;;;3.90;99.60;;;;;;5088286;28;20040;-83
2021/01/26 07:19:27;;;;;;;11.73;0.70;;;3.90;99.50;;;;;;5067979;28;20036;-83
2021/01/26 07:22:07;;;;;;;8.73;1.07;;;3.80;99.50;;;;;;5089977;28;20040;-83
2021/01/26 07:25:10;;;;;;;6.13;0.80;;;3.90;99.60;;;;;;5073197;28;20048;-83
2021/01/26 07:28:03;;;;;;;7.70;0.77;;;3.90;99.60;;;;;;5060186;28;20047;-83
2021/01/26 07:30:40;;;;;;;8.07;1.03;;;3.80;99.60;;;;;;5088970;28;20093;-83
2021/01/26 07:33:26;;;;;;;9.83;0.93;;;3.90;99.70;;;;;;5068349;28;20387;-83
2021/01/26 07:36:06;;;;;;;7.13;1.13;;;3.90;99.70;;;;;;5071102;28;20039;-86
2021/01/26 07:38:42;;;;;;;9.17;1.07;;;3.90;99.70;;;;;;5053445;28;20398;-80
2021/01/26 07:41:25;;;;;;;7.57;1.00;;;3.90;99.70;;;;;;5070874;28;20036;-82
2021/01/26 07:44:20;;;;;;;9.13;1.37;;;4.00;99.90;;;;;;5053111;28;20901;-81
2021/01/26 07:47:08;;;;;;;10.47;1.00;;;4.00;99.70;;;;;;5069710;28;20043;-82
2021/01/26 07:49:56;;;;;;;11.03;1.20;;;4.00;99.70;;;;;;5069710;28;20052;-83
2021/01/26 07:52:27;;;;;;;10.77;0.93;;;4.00;99.70;;;;;;5089478;28;20067;-82
2021/01/26 07:55:23;;;;;;;8.20;0.90;;;4.00;99.70;;;;;;5065594;28;20043;-82
2021/01/26 07:58:02;;;;;;;13.53;1.23;;;3.90;99.60;;;;;;5086171;28;20054;-83
2021/01/26 08:00:39;;;;;;;8.17;0.73;;;3.90;99.60;;;;;;5052694;28;20406;-83
2021/01/26 08:03:05;;;;;;;7.77;0.70;;;3.80;99.60;;;;;;5086665;28;20514;-83
2021/01/26 08:05:41;;;;;;;7.03;0.80;;;3.80;99.60;;;;;;5088841;28;20040;-83
2021/01/26 08:08:21;;;;;;;5.37;0.67;;;3.80;99.70;;;;;;5063748;28;20028;-83
2021/01/26 08:11:14;;;;;;;7.70;0.60;;;3.80;99.80;;;;;;5072311;28;20036;-89
2021/01/26 08:13:53;;;;;;;8.18;0.70;;;3.70;99.70;;;;;;5050817;28;20044;-85
2021/01/26 08:16:34;;;;;;;4.13;0.70;;;3.70;99.70;;;;;;5053448;28;20119;-84
2021/01/26 08:19:16;;;;;;;6.57;0.50;;;3.60;99.70;;;;;;5085183;28;20036;-88
2021/01/26 08:21:45;;;;;;;6.07;0.60;;;3.60;99.70;;;;;;5080256;28;20033;-86
2021/01/26 08:24:17;;;;;;;6.20;0.60;;;3.60;99.80;;;;;;5078100;28;20520;-82
2021/01/26 08:26:45;;;;;;;;;;;3.60;99.80;;;;;;5068845;28;20895;-84
2021/01/26 08:29:31;;;;;;;3.53;0.60;;;3.60;99.90;;;;;;5045831;28;19913;-85
2021/01/26 08:32:27;;;;;;;7.53;0.90;;;3.60;99.90;;;;;;5051482;28;20403;-85
2021/01/26 08:35:06;;;;;;;4.83;0.50;;;3.60;99.90;;;;;;5103485;28;20380;-84
2021/01/26 08:37:41;;;;;;;6.57;0.80;;;3.60;99.90;;;;;;5056498;28;20027;-83
2021/01/26 08:40:15;;;;;;;5.93;0.70;;;3.50;99.90;;;;;;5073414;28;20434;-86
2021/01/26 08:42:41;;;;;;;6.50;0.60;;;3.60;99.90;;;;;;5052182;28;20032;-86
2021/01/26 08:45:10;;;;;;;3.77;0.60;;;3.70;99.90;;;;;;5083942;28;20043;-86
2021/01/26 08:47:49;;;;;;;4.40;0.57;;;3.80;99.90;;;;;;5066678;28;20036;-85
2021/01/26 08:50:32;;;;;;;5.97;0.60;;;3.90;99.90;;;;;;5085172;28;20065;-86
2021/01/26 08:53:21;;;;;;;7.20;0.60;;;4.00;99.90;;;;;;5070762;28;20043;-87
2021/01/26 08:56:21;;;;;;;4.77;1.00;;;4.20;99.90;;;;;;5070091;28;20044;-86
2021/01/26 08:58:51;;;;;;;5.63;0.60;;;4.30;99.90;;;;;;5067766;28;20047;-86
2021/01/26 09:01:23;;;;;;;7.30;0.83;;;4.30;99.90;;;;;;5053624;28;20071;-83
2021/01/26 09:03:56;;;;;;;5.03;1.30;;;4.40;99.90;;;;;;5050044;28;20055;-87
2021/01/26 09:06:42;;;;;;;2.75;0.43;;;4.40;99.90;;;;;;5066795;28;20043;-87
2021/01/26 09:09:35;;;;;;;4.40;0.50;;;4.50;99.90;;;;;;5045573;28;20037;-86
2021/01/26 09:12:05;;;;;;;6.67;0.50;;;4.50;99.90;;;;;;5034026;28;20037;-88
2021/01/26 09:14:38;;;;;;;6.60;0.73;;;4.60;99.90;;;;;;5060144;28;20066;-85
2021/01/26 09:21:15;;;;;;;5.30;0.50;;;4.60;99.80;;;;;;5073139;28;19919;-87
2021/01/26 09:23:42;;;;;;;5.17;0.67;;;4.70;99.90;;;;;;5041634;28;20048;-85
2021/01/26 09:26:13;;;;;;;4.35;0.80;;;4.80;99.80;;;;;;5070926;28;20041;-84
2021/01/26 09:29:25;;;;;;;7.13;0.80;;;4.80;99.80;;;;;;5061188;28;20032;-89
2021/01/26 09:31:58;;;;;;;5.63;0.93;;;4.80;99.70;;;;;;5052417;28;20032;-85
2021/01/26 09:34:30;;;;;;;11.97;1.23;;;4.90;99.80;;;;;;5053131;28;20045;-86
2021/01/26 09:37:23;;;;;;;5.97;0.75;;;5.00;99.80;;;;;;5065499;28;20045;-84
2021/01/26 09:39:51;;;;;;;5.97;1.20;;;5.10;99.70;;;;;;5059370;28;20039;-84
2021/01/26 09:42:23;;;;;;;5.68;0.70;;;5.20;99.70;;;;;;5071156;28;20055;-82
2021/01/26 09:45:01;;;;;;;7.10;1.00;;;5.20;99.40;;;;;;5049913;28;20029;-80
2021/01/26 09:47:29;;;;;;;6.07;0.60;;;5.30;99.40;;;;;;5060135;28;20033;-81
2021/01/26 09:50:12;;;;;;;6.20;0.65;;;5.30;99.40;;;;;;5063283;28;20043;-81
2021/01/26 09:52:40;;;;;;;;;;;5.40;99.20;;;;;;5054338;28;20047;-81
2021/01/26 09:55:13;;;;;;;5.37;0.90;;;5.30;99.00;;;;;;5048373;28;19923;-84
2021/01/26 09:57:42;;;;;;;4.78;1.17;;;5.30;98.90;;;;;;5043780;28;20071;-81
2021/01/26 10:00:15;;;;;;;5.95;0.50;;;5.20;98.90;;;;;;5087668;28;20051;-81
2021/01/26 10:02:43;;;;;;;4.78;0.68;;;5.10;98.80;;;;;;5058283;28;20051;-81
2021/01/26 10:05:15;;;;;;;6.88;0.50;;;5.10;98.90;;;;;;5051600;28;20394;-81
2021/01/26 10:07:42;;;;;;;7.37;0.60;;;5.10;99.10;;;;;;5075162;28;20118;-81
2021/01/26 10:10:23;;;;;;;7.28;0.70;;;5.20;99.30;;;;;;5053038;28;20308;-82
2021/01/26 10:12:50;;;;;;;6.00;0.80;;;5.30;99.50;;;;;;5067554;28;20036;-82
2021/01/26 10:15:22;;;;;;;4.15;0.50;;;5.40;99.40;;;;;;5050349;28;20043;-82
2021/01/26 10:17:54;;;;;;;11.55;0.57;;;5.60;99.40;;;;;;5073864;28;20044;-81
2021/01/26 10:20:24;;;;;;;5.57;0.40;;;5.80;99.70;;;;;;5067494;28;20574;-82
2021/01/26 10:23:05;;;;;;;9.15;0.60;;;6.00;99.70;;;;;;5083534;28;20056;-82
2021/01/26 10:25:32;;;;;;;4.00;0.50;;;6.10;99.40;;;;;;5082082;28;20482;-82
2021/01/26 10:28:24;;;;;;;6.90;0.50;;;6.20;99.10;;;;;;5082559;28;20035;-82
2021/01/26 10:30:51;;;;;;;5.53;0.47;;;6.30;99.00;;;;;;5068445;28;20042;-82
2021/01/26 10:33:36;;;;;;;6.75;0.55;;;6.40;98.50;;;;;;5068590;28;20043;-82
2021/01/26 10:36:33;;;;;;;5.93;0.40;;;6.40;98.30;;;;;;5068277;28;20047;-82
2021/01/26 10:39:22;;;;;;;3.22;0.45;;;6.40;98.40;;;;;;5066949;28;20399;-83
2021/01/26 10:42:01;;;;;;;4.47;0.50;;;6.50;98.40;;;;;;5082414;28;20528;-83
2021/01/26 10:44:28;;;;;;;3.75;0.60;;;6.60;98.40;;;;;;5073710;28;20052;-83
2021/01/26 10:46:56;;;;;;;4.45;0.75;;;6.60;97.60;;;;;;5066717;28;20047;-82
2021/01/26 10:49:51;;;;;;;6.15;0.50;;;6.70;97.70;;;;;;5084368;28;20063;-83
2021/01/26 10:52:53;;;;;;;6.38;1.00;;;6.80;97.70;;;;;;5093483;28;20040;-81
2021/01/26 10:55:22;;;;;;;4.78;0.40;;;6.90;97.30;;;;;;5083843;28;20877;-82
2021/01/26 10:57:51;;;;;;;4.80;0.50;;;7.00;97.40;;;;;;5078520;28;20118;-82
2021/01/26 11:00:29;;;;;;;9.02;0.60;;;7.10;97.30;;;;;;5084798;28;20051;-83
2021/01/26 11:02:57;;;;;;;5.95;0.93;;;7.20;97.10;;;;;;5084135;28;20052;-82
2021/01/26 11:05:24;;;;;;;7.03;0.88;;;7.20;96.60;;;;;;5080983;28;20048;-82
2021/01/26 11:07:51;;;;;;;5.90;0.35;;;7.20;96.10;;;;;;5081470;28;20093;-82
2021/01/26 11:14:02;;;;;;;8.13;0.88;;;7.20;95.90;;;;;;5087275;28;20040;-84
2021/01/26 11:16:29;;;;;;;5.85;0.70;;;7.10;95.90;;;;;;5084115;28;20047;-85
2021/01/26 11:18:58;;;;;;;5.82;0.80;;;7.00;95.70;;;;;;5068013;28;20056;-88
2021/01/26 11:21:26;;;;;;;5.68;0.50;;;7.00;95.80;;;;;;5081993;28;20032;-82
2021/01/26 11:23:54;;;;;;;7.80;0.57;;;7.00;95.70;;;;;;5081787;28;20431;-84
2021/01/26 11:26:22;;;;;;;4.07;0.70;;;7.00;95.40;;;;;;5064376;28;20075;-83
2021/01/26 11:28:49;;;;;;;2.83;0.30;;;6.90;95.40;;;;;;5085169;28;20155;-83
2021/01/26 11:31:17;;;;;;;6.88;0.60;;;6.90;95.40;;;;;;5066545;28;20036;-83
2021/01/26 11:33:53;;;;;;;6.85;0.52;;;6.90;95.30;;;;;;5065582;28;20079;-82
2021/01/26 11:36:20;;;;;;;7.45;0.70;;;6.90;95.20;;;;;;5082773;28;20391;-84
2021/01/26 11:38:47;;;;;;;7.90;0.70;;;6.90;94.70;;;;;;5063521;28;20569;-83
2021/01/26 11:41:13;;;;;;;6.45;0.70;;;6.90;94.60;;;;;;5052277;28;20036;-83
2021/01/26 11:43:40;;;;;;;5.90;0.60;;;6.80;94.60;;;;;;5067052;28;20040;-84
2021/01/26 11:46:07;;;;;;;5.57;0.60;;;6.80;94.60;;;;;;5084737;28;20032;-82
2021/01/26 11:48:34;;;;;;;6.82;0.85;;;6.80;94.40;;;;;;5080970;28;20028;-84
2021/01/26 11:51:02;;;;;;;6.43;0.50;;;6.80;94.50;;;;;;5067486;28;20037;-83
2021/01/26 11:53:29;;;;;;;6.07;0.43;;;6.80;94.50;;;;;;5065783;28;20037;-83
2021/01/26 11:56:00;;;;;;;8.15;0.40;;;6.80;94.50;;;;;;5068181;28;20063;-86
2021/01/26 11:58:27;;;;;;;3.67;0.50;;;6.90;94.50;;;;;;5083557;28;20052;-83
2021/01/26 12:00:55;;;;;;;4.45;0.60;;;7.00;94.20;;;;;;5069893;28;20059;-83
2021/01/26 12:03:22;;;;;;;8.20;1.00;;;7.00;94.00;;;;;;5079065;28;20028;-81
2021/01/26 12:05:48;;;;;;;8.43;0.60;;;7.00;93.80;;;;;;5050237;28;20813;-81
2021/01/26 12:08:15;;;;;;;3.88;0.50;;;7.00;93.80;;;;;;5079462;28;20060;-81
2021/01/26 12:10:42;;;;;;;6.55;0.50;;;7.10;93.80;;;;;;5085620;28;20033;-81
2021/01/26 12:13:10;;;;;;;5.10;0.50;;;7.20;93.70;;;;;;5087664;28;20047;-81
2021/01/26 12:15:40;;;;;;;11.25;1.00;;;7.20;93.60;;;;;;5086210;28;20044;-81
2021/01/26 12:18:08;;;;;;;3.15;0.50;;;7.20;93.50;;;;;;5084340;28;20040;-83
2021/01/26 12:20:35;;;;;;;9.00;0.45;;;7.20;93.50;;;;;;5061386;28;20055;-83
2021/01/26 12:23:01;;;;;;;7.30;0.50;;;7.30;93.50;;;;;;5082807;28;20028;-83
2021/01/26 12:25:30;;;;;;;6.60;0.60;;;7.30;93.40;;;;;;5059569;28;20032;-83
2021/01/26 12:27:56;;;;;;;7.43;0.50;;;7.40;93.50;;;;;;5067526;28;20826;-84
2021/01/26 12:30:24;;;;;;;3.80;0.50;;;7.40;93.30;;;;;;5052930;28;20043;-84
2021/01/26 12:32:53;;;;;;;7.47;0.60;;;7.40;93.10;;;;;;5085678;28;20044;-84
2021/01/26 12:35:32;;;;;;;11.77;0.50;;;7.30;92.50;;;;;;5081859;28;20024;-85
2021/01/26 12:38:00;;;;;;;3.97;0.50;;;7.20;92.00;;;;;;5059259;28;20043;-83
2021/01/26 12:40:27;;;;;;;6.28;0.68;;;7.10;92.10;;;;;;5051949;28;20387;-85
2021/01/26 12:42:53;;;;;;;12.98;0.60;;;7.00;92.10;;;;;;5064403;28;20399;-84
2021/01/26 12:45:24;;;;;;;7.45;0.95;;;7.00;92.30;;;;;;5082234;28;20051;-85
2021/01/26 12:47:52;;;;;;;4.00;0.70;;;6.90;92.40;;;;;;5073238;28;20024;-82
2021/01/26 12:50:25;;;;;;;3.13;0.40;;;6.80;92.40;;;;;;5075969;28;20037;-83
2021/01/26 12:52:52;;;;;;;3.30;0.63;;;6.70;92.70;;;;;;5089716;28;20056;-82
2021/01/26 12:55:19;;;;;;;4.57;0.40;;;6.70;93.00;;;;;;5070125;28;20036;-83
2021/01/26 12:57:45;;;;;;;3.40;0.35;;;6.60;93.20;;;;;;5048541;28;20036;-85
2021/01/26 13:00:15;;;;;;;4.55;0.40;;;6.60;93.40;;;;;;5078067;28;20044;-82
2021/01/26 13:02:42;;;;;;;3.80;0.30;;;6.70;93.60;;;;;;5051299;28;20027;-82
2021/01/26 13:05:10;;;;;;;5.45;0.40;;;6.70;93.60;;;;;;5083731;28;20052;-82
2021/01/26 13:07:37;;;;;;;6.20;0.40;;;6.80;93.50;;;;;;5082684;28;20047;-84
2021/01/26 13:10:05;;;;;;;4.05;0.68;;;6.90;93.60;;;;;;5059478;28;20036;-82
2021/01/26 13:12:31;;;;;;;3.42;0.85;;;6.90;93.50;;;;;;5084236;28;20024;-82
2021/01/26 13:14:58;;;;;;;5.55;0.68;;;6.90;93.50;;;;;;5051755;28;20028;-82
2021/01/26 13:17:25;;;;;;;3.90;0.40;;;6.90;93.50;;;;;;5069755;28;20040;-81
2021/01/26 13:19:51;;;;;;;5.80;0.50;;;7.00;93.60;;;;;;5088913;28;20082;-81
2021/01/26 13:22:18;;;;;;;5.10;0.52;;;7.00;93.50;;;;;;5093111;28;20047;-81
2021/01/26 13:24:47;;;;;;;3.08;0.45;;;6.90;93.50;;;;;;5095514;28;20044;-82
2021/01/26 13:27:16;;;;;;;5.07;0.50;;;6.90;93.50;;;;;;5090482;28;20051;-85
2021/01/26 13:29:43;;;;;;;2.35;0.30;;;6.90;93.60;;;;;;5098451;28;20036;-84
2021/01/26 13:32:11;;;;;;;4.15;0.30;;;6.90;93.70;;;;;;5062390;28;20039;-81
2021/01/26 13:34:39;;;;;;;2.95;0.30;;;6.90;93.70;;;;;;5087327;28;20036;-84
2021/01/26 13:37:06;;;;;;;4.78;0.40;;;6.90;93.80;;;;;;5087815;28;20134;-83
2021/01/26 13:39:33;;;;;;;4.13;0.50;;;6.90;93.70;;;;;;5067464;28;20055;-83
2021/01/26 13:41:59;;;;;;;5.60;0.60;;;6.80;93.70;;;;;;5086732;28;20040;-83
2021/01/26 13:44:27;;;;;;;2.33;0.70;;;6.70;93.80;;;;;;5069281;28;20409;-84
2021/01/26 13:46:54;;;;;;;4.93;0.50;;;6.70;93.90;;;;;;5084959;28;20035;-84